Time;durP1;ratioP1;P1;durP2;ratioP2;P2;SDS_P1;SDS_P2;PMS_P1;PMS_P2;Temp;Humidity;BMP_temperature;BMP_pressure;BME280_temperature;BME280_humidity;BME280_pressure;Samples;Min_cycle;Max_cycle;Signal;HPM_P1;HPM_P2
2023/08/24 00:01:25;;;;;;;10.55;6.38;;;;;;;21.10;61.67;101697.34;5068366;28;20090;-65
2023/08/24 00:03:51;;;;;;;7.18;6.20;;;;;;;21.11;61.65;101698.22;5071245;28;20059;-65
2023/08/24 00:06:16;;;;;;;8.43;7.03;;;;;;;21.05;61.84;101688.97;5071968;28;20028;-65
2023/08/24 00:08:42;;;;;;;11.27;6.93;;;;;;;21.06;61.95;101691.50;5072196;28;20100;-66
2023/08/24 00:11:07;;;;;;;12.10;6.53;;;;;;;21.02;61.93;101695.22;5067564;28;20716;-65
2023/08/24 00:13:33;;;;;;;9.80;7.20;;;;;;;20.92;62.31;101696.19;5072237;28;20476;-65
2023/08/24 00:15:58;;;;;;;11.93;7.05;;;;;;;20.94;62.23;101712.81;5071293;28;20107;-66
2023/08/24 00:18:24;;;;;;;8.65;7.45;;;;;;;20.95;62.29;101706.06;5071550;28;20025;-65
2023/08/24 00:20:50;;;;;;;11.20;6.50;;;;;;;20.95;62.27;101695.59;5071697;28;20193;-65
2023/08/24 00:23:17;;;;;;;11.23;7.07;;;;;;;20.95;62.28;101687.13;5071262;28;20025;-65
2023/08/24 00:25:43;;;;;;;11.80;7.28;;;;;;;20.84;62.70;101677.97;5071856;28;20028;-66
2023/08/24 00:28:08;;;;;;;9.40;6.72;;;;;;;20.88;62.63;101672.56;5067848;28;20032;-65
2023/08/24 00:30:34;;;;;;;8.15;6.82;;;;;;;20.84;62.75;101677.13;5071146;28;20024;-66
2023/08/24 00:33:00;;;;;;;10.32;6.50;;;;;;;20.79;62.81;101686.50;5071838;28;20125;-65
2023/08/24 00:35:25;;;;;;;9.80;6.88;;;;;;;20.75;62.91;101674.16;5071637;28;20035;-65
2023/08/24 00:37:50;;;;;;;9.15;6.57;;;;;;;20.79;62.80;101682.84;5072015;28;20471;-65
2023/08/24 00:40:16;;;;;;;10.93;6.55;;;;;;;20.79;62.92;101683.69;5075503;28;20035;-66
2023/08/24 00:42:44;;;;;;;8.80;6.20;;;;;;;20.78;62.89;101683.97;5075797;28;20027;-65
2023/08/24 00:45:11;;;;;;;11.20;6.97;;;;;;;20.74;63.17;101665.97;5070738;28;20028;-65
2023/08/24 00:47:39;;;;;;;8.68;6.50;;;;;;;20.65;63.52;101660.16;5067827;28;20033;-65
2023/08/24 00:50:06;;;;;;;11.25;6.57;;;;;;;20.66;63.37;101650.53;5075515;28;20106;-66
2023/08/24 00:52:33;;;;;;;8.40;6.18;;;;;;;20.78;63.22;101664.22;5074979;28;20032;-65
2023/08/24 00:55:02;;;;;;;11.95;7.15;;;;;;;20.73;63.34;101667.13;5075526;28;20035;-66
2023/08/24 00:57:28;;;;;;;7.82;6.63;;;;;;;20.66;63.56;101664.66;5075441;28;20028;-65
2023/08/24 00:59:55;;;;;;;9.18;6.68;;;;;;;20.72;63.40;101671.09;5074677;28;20028;-65
2023/08/24 01:02:20;;;;;;;8.13;6.47;;;;;;;20.70;63.29;101664.88;5075265;28;20403;-65
2023/08/24 01:04:46;;;;;;;8.75;6.25;;;;;;;20.72;63.44;101663.47;5066886;28;20028;-66
2023/08/24 01:07:12;;;;;;;9.50;6.75;;;;;;;20.71;63.61;101653.31;5074365;28;20491;-65
2023/08/24 01:09:39;;;;;;;8.73;6.93;;;;;;;20.71;63.54;101658.09;5075288;28;20027;-66
2023/08/24 01:12:07;;;;;;;9.43;7.10;;;;;;;20.75;63.57;101659.16;5075121;28;20028;-65
2023/08/24 01:15:01;;;;;;;10.27;6.32;;;;;;;20.75;63.36;101662.84;5074226;28;20037;-66
2023/08/24 01:17:29;;;;;;;9.88;6.78;;;;;;;20.57;63.80;101670.13;5074564;28;20630;-66
2023/08/24 01:19:55;;;;;;;8.30;6.47;;;;;;;20.64;63.65;101672.59;5070745;28;20115;-65
2023/08/24 01:22:34;;;;;;;9.48;6.70;;;;;;;20.66;63.46;101659.00;5065772;28;20038;-65
2023/08/24 01:25:11;;;;;;;9.95;6.47;;;;;;;20.58;63.78;101654.88;5074593;28;20036;-65
2023/08/24 01:27:40;;;;;;;8.98;6.75;;;;;;;20.59;63.90;101650.06;5073836;28;20029;-65
2023/08/24 01:30:06;;;;;;;10.20;6.60;;;;;;;20.56;63.92;101654.34;5074662;28;20519;-65
2023/08/24 01:32:32;;;;;;;8.68;6.05;;;;;;;20.57;64.03;101647.56;5074615;28;20034;-65
2023/08/24 01:35:02;;;;;;;8.48;7.00;;;;;;;20.47;64.42;101655.25;5073785;28;20111;-65
2023/08/24 01:37:27;;;;;;;8.35;6.47;;;;;;;20.50;64.33;101660.34;5069722;28;20037;-65
2023/08/24 01:40:11;;;;;;;10.18;7.00;;;;;;;20.53;64.29;101651.28;5055035;28;20498;-65
2023/08/24 01:42:56;;;;;;;8.50;6.65;;;;;;;20.62;63.80;101651.44;5053876;28;20035;-65
2023/08/24 01:45:25;;;;;;;12.35;6.68;;;;;;;20.51;64.50;101647.91;5054500;28;20021;-65
2023/08/24 01:47:52;;;;;;;9.30;6.72;;;;;;;20.51;64.47;101653.56;5053531;28;20067;-65
2023/08/24 01:50:17;;;;;;;10.00;6.53;;;;;;;20.51;64.46;101650.72;5053566;28;20029;-65
2023/08/24 01:52:43;;;;;;;9.20;6.60;;;;;;;20.49;64.53;101647.38;5053848;28;20435;-65
2023/08/24 01:55:08;;;;;;;8.85;6.50;;;;;;;20.55;64.66;101649.00;5058755;28;20426;-66
2023/08/24 01:57:33;;;;;;;8.93;6.63;;;;;;;20.57;64.46;101652.38;5073982;28;20032;-66
2023/08/24 01:59:59;;;;;;;8.88;7.20;;;;;;;20.54;64.67;101652.97;5070969;28;20046;-65
2023/08/24 02:02:24;;;;;;;10.73;7.38;;;;;;;20.48;64.83;101657.81;5072023;28;20078;-65
2023/08/24 02:04:50;;;;;;;8.90;6.82;;;;;;;20.55;64.63;101651.81;5073713;28;20103;-65
2023/08/24 02:07:16;;;;;;;10.05;7.18;;;;;;;20.56;64.63;101660.00;5073656;28;20069;-65
2023/08/24 02:09:42;;;;;;;10.40;7.32;;;;;;;20.54;64.73;101656.63;5073136;28;20036;-65
2023/08/24 02:12:07;;;;;;;8.82;6.55;;;;;;;20.56;64.87;101647.88;5073718;28;20105;-66
2023/08/24 02:14:32;;;;;;;11.38;7.35;;;;;;;20.47;64.95;101627.91;5073749;28;20043;-65
2023/08/24 02:16:57;;;;;;;9.38;7.00;;;;;;;20.61;64.56;101630.03;5068230;28;20123;-65
2023/08/24 02:19:23;;;;;;;10.07;7.43;;;;;;;20.61;64.65;101633.69;5073546;28;20388;-66
2023/08/24 02:21:48;;;;;;;9.27;7.00;;;;;;;20.59;64.68;101645.28;5073248;28;20025;-66
2023/08/24 02:24:13;;;;;;;12.23;7.70;;;;;;;20.56;64.93;101645.06;5072689;28;20029;-65
2023/08/24 02:26:39;;;;;;;14.05;7.55;;;;;;;20.53;64.94;101637.19;5073296;28;20029;-66
2023/08/24 02:29:04;;;;;;;11.20;7.20;;;;;;;20.52;65.03;101629.88;5073440;28;20029;-65
2023/08/24 02:31:30;;;;;;;8.23;7.07;;;;;;;20.60;64.98;101632.03;5072627;28;20471;-65
2023/08/24 02:33:55;;;;;;;9.43;7.95;;;;;;;20.58;64.72;101642.75;5065275;28;20440;-65
2023/08/24 02:36:21;;;;;;;10.15;7.53;;;;;;;20.57;65.13;101649.53;5073026;28;20056;-66
2023/08/24 02:38:46;;;;;;;11.10;7.47;;;;;;;20.53;65.18;101640.84;5072417;28;20033;-67
2023/08/24 02:41:14;;;;;;;8.68;7.28;;;;;;;20.51;65.54;101628.16;5072981;28;20039;-66
2023/08/24 02:43:39;;;;;;;11.18;7.95;;;;;;;20.52;65.15;101619.44;5072975;28;20051;-66
2023/08/24 02:46:07;;;;;;;8.50;7.25;;;;;;;20.52;65.37;101607.31;5072500;28;20424;-67
2023/08/24 02:48:33;;;;;;;11.23;8.32;;;;;;;20.53;65.37;101594.88;5072884;28;20039;-66
2023/08/24 02:50:59;;;;;;;13.30;8.60;;;;;;;20.58;65.51;101591.97;5058571;28;20435;-66
2023/08/24 02:53:25;;;;;;;11.15;7.82;;;;;;;20.55;65.63;101585.00;5052859;28;20048;-65
2023/08/24 02:55:51;;;;;;;9.10;7.80;;;;;;;20.55;65.77;101578.47;5052682;28;20471;-65
2023/08/24 02:58:16;;;;;;;10.45;7.80;;;;;;;20.55;66.00;101573.72;5051841;28;20670;-65
2023/08/24 03:00:42;;;;;;;10.43;7.63;;;;;;;20.56;66.75;101563.25;5051493;28;20057;-66
2023/08/24 03:03:07;;;;;;;10.88;8.20;;;;;;;20.49;67.24;101569.25;5052503;28;20072;-65
2023/08/24 03:05:32;;;;;;;11.02;8.18;;;;;;;20.51;67.68;101537.94;5051664;28;20033;-65
2023/08/24 03:07:58;;;;;;;13.95;8.50;;;;;;;20.46;67.51;101521.06;5057379;28;20086;-65
2023/08/24 03:10:24;;;;;;;13.73;8.00;;;;;;;20.45;67.38;101500.47;5072271;28;20098;-65
2023/08/24 03:12:49;;;;;;;11.00;8.48;;;;;;;20.42;67.62;101497.44;5071675;28;20032;-66
2023/08/24 03:15:15;;;;;;;10.80;8.27;;;;;;;20.31;68.13;101491.91;5072106;28;20472;-65
2023/08/24 03:17:41;;;;;;;13.88;8.75;;;;;;;20.28;68.36;101492.56;5072015;28;20039;-65
2023/08/24 03:20:07;;;;;;;14.18;8.55;;;;;;;20.23;68.63;101498.25;5071290;28;20107;-66
2023/08/24 03:22:32;;;;;;;12.23;9.73;;;;;;;20.27;68.94;101495.66;5072319;28;20030;-66
2023/08/24 03:24:57;;;;;;;13.75;9.57;;;;;;;20.22;69.78;101479.66;5067947;28;20119;-65
2023/08/24 03:27:23;;;;;;;14.23;10.80;;;;;;;20.30;69.21;101470.53;5071165;28;20033;-65
2023/08/24 03:29:48;;;;;;;17.30;11.98;;;;;;;20.27;70.09;101459.84;5072004;28;20082;-65
2023/08/24 03:32:14;;;;;;;12.70;10.27;;;;;;;20.30;69.62;101464.88;5071980;28;20042;-66
2023/08/24 03:34:40;;;;;;;12.27;10.43;;;;;;;20.28;70.07;101452.25;5071006;28;20075;-65
2023/08/24 03:37:05;;;;;;;16.25;11.27;;;;;;;20.34;69.70;101448.19;5071916;28;20036;-65
2023/08/24 03:39:31;;;;;;;16.75;10.98;;;;;;;20.22;69.98;101440.19;5068901;28;20024;-66
2023/08/24 03:41:56;;;;;;;15.32;11.40;;;;;;;20.28;70.60;101427.72;5069942;28;20028;-65
2023/08/24 03:44:21;;;;;;;14.38;11.27;;;;;;;20.26;70.78;101429.16;5071690;28;20426;-65
2023/08/24 03:46:47;;;;;;;16.25;11.20;;;;;;;20.31;70.19;101429.06;5071686;28;20028;-65
2023/08/24 03:49:12;;;;;;;13.95;11.45;;;;;;;20.29;70.52;101435.03;5070845;28;20025;-65
2023/08/24 03:51:37;;;;;;;17.58;12.55;;;;;;;20.29;70.41;101429.38;5071855;28;20025;-65
2023/08/24 03:54:05;;;;;;;16.20;12.32;;;;;;;20.28;70.56;101432.53;5070853;28;20491;-65
2023/08/24 03:56:30;;;;;;;16.30;11.40;;;;;;;20.38;70.28;101448.44;5070123;28;20040;-65
2023/08/24 03:58:55;;;;;;;19.17;13.05;;;;;;;20.35;71.05;101444.22;5054654;28;20029;-65
2023/08/24 04:01:22;;;;;;;19.38;13.13;;;;;;;20.32;71.10;101458.97;5068104;28;20024;-65
2023/08/24 04:03:47;;;;;;;19.13;14.10;;;;;;;20.27;71.87;101461.81;5091666;28;20076;-65
2023/08/24 04:06:12;;;;;;;21.00;14.05;;;;;;;20.31;71.62;101454.44;5092020;28;20024;-66
2023/08/24 04:08:38;;;;;;;17.50;13.30;;;;;;;20.29;71.10;101454.75;5090999;28;20024;-65
2023/08/24 04:11:03;;;;;;;17.40;12.05;;;;;;;20.32;71.15;101456.97;5091708;28;20145;-65
2023/08/24 04:13:28;;;;;;;15.95;13.00;;;;;;;20.37;70.30;101453.25;5091511;28;20039;-65
2023/08/24 04:15:53;;;;;;;15.82;13.13;;;;;;;20.34;71.08;101467.94;5090518;28;20052;-65
2023/08/24 04:18:19;;;;;;;17.40;12.80;;;;;;;20.30;71.03;101464.88;5070257;28;20120;-65
2023/08/24 04:20:44;;;;;;;17.40;13.02;;;;;;;20.35;70.34;101458.31;5071538;28;20050;-66
2023/08/24 04:23:10;;;;;;;19.25;12.80;;;;;;;20.28;70.87;101467.19;5070869;28;20372;-65
2023/08/24 04:25:39;;;;;;;15.35;12.50;;;;;;;20.33;70.56;101464.28;5071326;28;20021;-66
2023/08/24 04:28:05;;;;;;;15.77;13.60;;;;;;;20.33;70.75;101469.91;5071322;28;20032;-65
2023/08/24 04:30:30;;;;;;;17.35;13.68;;;;;;;20.29;70.55;101474.50;5070517;28;20529;-66
2023/08/24 04:32:55;;;;;;;17.58;13.90;;;;;;;20.34;70.37;101476.41;5067665;28;20379;-65
2023/08/24 04:35:21;;;;;;;18.15;13.40;;;;;;;20.32;70.53;101475.88;5064531;28;20039;-65
2023/08/24 04:37:46;;;;;;;15.65;13.48;;;;;;;20.32;70.34;101476.72;5070213;28;20146;-65
2023/08/24 04:40:11;;;;;;;16.75;14.13;;;;;;;20.29;70.89;101477.31;5071182;28;20119;-65
2023/08/24 04:42:37;;;;;;;18.25;14.13;;;;;;;20.26;70.91;101469.44;5071047;28;20147;-65
2023/08/24 04:45:02;;;;;;;17.13;14.00;;;;;;;20.24;71.32;101471.75;5070543;28;20024;-66
2023/08/24 04:47:27;;;;;;;20.45;14.57;;;;;;;20.21;71.16;101466.72;5070938;28;20487;-65
2023/08/24 04:49:53;;;;;;;16.45;13.65;;;;;;;20.20;71.17;101472.63;5071471;28;20379;-65
2023/08/24 04:52:18;;;;;;;17.33;13.93;;;;;;;20.26;70.66;101469.44;5062842;28;20025;-65
2023/08/24 04:54:43;;;;;;;19.23;14.82;;;;;;;20.26;71.03;101469.44;5063395;28;20036;-65
2023/08/24 04:57:09;;;;;;;18.77;14.45;;;;;;;20.19;71.27;101463.34;5051142;28;20049;-65
2023/08/24 04:59:34;;;;;;;16.33;14.32;;;;;;;20.13;71.50;101464.56;5050592;28;20116;-65
2023/08/24 05:01:59;;;;;;;17.00;15.15;;;;;;;20.15;71.08;101467.06;5059160;28;20081;-66
2023/08/24 05:04:24;;;;;;;21.42;14.95;;;;;;;20.16;71.17;101468.75;5070378;28;20474;-65
2023/08/24 05:06:50;;;;;;;20.60;15.20;;;;;;;20.14;71.07;101471.88;5070562;28;20034;-65
2023/08/24 05:09:15;;;;;;;20.10;15.75;;;;;;;20.13;71.47;101475.84;5052761;28;20033;-66
2023/08/24 05:11:41;;;;;;;19.08;14.63;;;;;;;20.06;71.80;101481.84;5050338;28;20024;-67
2023/08/24 05:14:06;;;;;;;19.35;16.08;;;;;;;19.99;71.87;101483.34;5050991;28;20387;-66
2023/08/24 05:16:31;;;;;;;17.50;15.00;;;;;;;20.03;71.95;101474.00;5050734;28;20048;-66
2023/08/24 05:18:56;;;;;;;21.05;14.70;;;;;;;19.98;72.43;101473.22;5050211;28;20834;-65
2023/08/24 05:21:22;;;;;;;21.67;15.07;;;;;;;19.98;72.34;101468.44;5051047;28;20037;-65
2023/08/24 05:23:47;;;;;;;17.55;15.52;;;;;;;20.02;72.19;101468.66;5059415;28;20036;-65
2023/08/24 05:26:12;;;;;;;21.42;15.98;;;;;;;19.98;72.40;101461.97;5073960;28;20400;-65
2023/08/24 05:28:38;;;;;;;18.80;16.30;;;;;;;20.05;72.03;101451.16;5074345;28;20035;-66
2023/08/24 05:31:03;;;;;;;20.50;15.77;;;;;;;20.08;71.83;101444.91;5074419;28;20021;-65
2023/08/24 05:33:30;;;;;;;20.60;15.13;;;;;;;20.05;71.71;101446.34;5073329;28;20062;-66
2023/08/24 05:35:56;;;;;;;19.95;15.65;;;;;;;20.04;71.88;101446.63;5074012;28;20044;-66
2023/08/24 05:38:25;;;;;;;21.55;15.60;;;;;;;20.08;71.68;101451.41;5074525;28;20032;-66
2023/08/24 05:40:50;;;;;;;18.35;15.43;;;;;;;20.13;71.88;101456.13;5069591;28;20028;-65
2023/08/24 05:43:15;;;;;;;23.08;16.38;;;;;;;20.12;71.72;101443.16;5074210;28;20449;-66
2023/08/24 05:45:44;;;;;;;17.55;15.57;;;;;;;20.10;71.76;101440.66;5074225;28;20036;-65
2023/08/24 05:48:09;;;;;;;21.05;16.00;;;;;;;20.14;71.62;101443.69;5073284;28;20071;-66
2023/08/24 05:50:35;;;;;;;21.88;17.25;;;;;;;20.06;72.68;101438.75;5074135;28;20100;-66
2023/08/24 05:53:00;;;;;;;19.33;17.05;;;;;;;20.02;72.72;101443.31;5067457;28;20064;-65
2023/08/24 05:55:26;;;;;;;22.65;18.10;;;;;;;20.11;72.37;101436.69;5074047;28;20024;-66
2023/08/24 05:57:51;;;;;;;21.17;17.27;;;;;;;20.10;72.51;101429.38;5074177;28;20395;-66
2023/08/24 06:00:17;;;;;;;21.90;16.80;;;;;;;20.15;72.27;101422.81;5070818;28;20442;-65
2023/08/24 06:02:42;;;;;;;19.52;16.85;;;;;;;20.15;72.39;101419.16;5071957;28;20039;-64
2023/08/24 06:05:08;;;;;;;24.40;17.63;;;;;;;20.17;72.34;101406.47;5073998;28;20024;-66
2023/08/24 06:07:34;;;;;;;23.45;18.30;;;;;;;20.18;72.53;101405.31;5074029;28;20115;-66
2023/08/24 06:10:00;;;;;;;20.65;17.38;;;;;;;20.22;72.28;101397.91;5073197;28;20055;-66
2023/08/24 06:12:25;;;;;;;22.23;17.80;;;;;;;20.23;72.38;101382.66;5073770;28;20029;-64
2023/08/24 06:14:51;;;;;;;22.38;17.70;;;;;;;20.26;72.62;101365.16;5073049;28;20502;-65
2023/08/24 06:17:16;;;;;;;21.73;17.70;;;;;;;20.32;72.33;101365.94;5069119;28;20048;-65
2023/08/24 06:19:42;;;;;;;21.08;18.08;;;;;;;20.31;72.73;101370.69;5073623;28;20024;-65
2023/08/24 06:22:08;;;;;;;21.70;16.92;;;;;;;20.35;71.83;101371.75;5072896;28;20056;-65
2023/08/24 06:24:33;;;;;;;23.38;18.45;;;;;;;20.40;72.18;101378.50;5073548;28;20055;-66
2023/08/24 06:26:58;;;;;;;20.73;17.50;;;;;;;20.50;71.82;101383.97;5073420;28;20048;-65
2023/08/24 06:29:24;;;;;;;21.50;16.60;;;;;;;20.51;71.64;101389.28;5072799;28;20037;-65
2023/08/24 06:31:49;;;;;;;22.73;18.23;;;;;;;20.52;71.48;101390.16;5073343;28;20467;-65
2023/08/24 06:34:14;;;;;;;22.20;16.67;;;;;;;20.61;70.72;101396.78;5064536;28;20025;-66
2023/08/24 06:36:40;;;;;;;25.65;17.38;;;;;;;20.67;70.96;101389.03;5052738;28;20032;-66
2023/08/24 06:39:05;;;;;;;20.05;16.83;;;;;;;;;;5053444;28;20068;-66
2023/08/24 06:41:35;;;;;;;21.52;17.15;;;;;;;20.84;70.46;101395.81;5053794;28;20107;-67
2023/08/24 06:44:01;;;;;;;23.08;15.63;;;;;;;20.92;70.29;101384.97;5052688;28;20037;-66
2023/08/24 06:46:26;;;;;;;18.88;16.45;;;;;;;20.99;69.75;101383.41;5053279;28;20044;-66
2023/08/24 06:48:51;;;;;;;19.65;15.52;;;;;;;21.06;69.59;101383.84;5053123;28;20079;-67
2023/08/24 06:51:17;;;;;;;18.70;16.73;;;;;;;21.10;68.86;101384.03;5052451;28;20036;-66
2023/08/24 06:53:42;;;;;;;19.50;16.20;;;;;;;21.11;68.48;101391.38;5053400;28;20075;-66
2023/08/24 06:56:08;;;;;;;17.63;15.73;;;;;;;21.16;68.38;101387.63;5053152;28;20530;-66
2023/08/24 06:58:34;;;;;;;21.00;16.08;;;;;;;21.23;68.02;101390.88;5060853;28;20525;-67
2023/08/24 07:01:00;;;;;;;18.55;15.77;;;;;;;21.32;68.21;101389.84;5072976;28;20064;-66
2023/08/24 07:03:25;;;;;;;19.55;15.82;;;;;;;21.40;67.60;101382.63;5073203;28;20376;-66
2023/08/24 07:05:50;;;;;;;21.55;15.80;;;;;;;21.40;67.10;101384.63;5072402;28;20106;-66
2023/08/24 07:08:16;;;;;;;20.55;15.93;;;;;;;21.44;66.89;101372.38;5072934;28;20155;-64
2023/08/24 07:10:42;;;;;;;19.05;15.05;;;;;;;21.55;67.81;101367.38;5072725;28;20016;-64
2023/08/24 07:13:07;;;;;;;19.77;15.45;;;;;;;21.57;67.12;101362.22;5072207;28;20028;-64
2023/08/24 07:15:34;;;;;;;17.23;14.32;;;;;;;21.68;66.63;101366.50;5056251;28;20080;-63
2023/08/24 07:18:01;;;;;;;19.63;16.23;;;;;;;21.71;66.84;101357.41;5052254;28;20123;-64
2023/08/24 07:20:26;;;;;;;17.50;14.75;;;;;;;21.84;66.13;101361.34;5052998;28;20040;-64
2023/08/24 07:22:53;;;;;;;18.98;13.93;;;;;;;21.85;66.32;101356.53;5052655;28;20021;-64
2023/08/24 07:25:20;;;;;;;18.80;14.68;;;;;;;21.95;65.85;101359.13;5052018;28;20025;-64
2023/08/24 07:27:45;;;;;;;18.85;14.25;;;;;;;22.05;66.38;101358.91;5052650;28;20053;-64
2023/08/24 07:30:11;;;;;;;16.98;14.57;;;;;;;22.11;64.33;101359.63;5053990;28;20445;-64
2023/08/24 07:32:37;;;;;;;16.85;13.68;;;;;;;22.18;64.33;101355.22;5070747;28;20032;-64
2023/08/24 07:35:02;;;;;;;21.90;14.00;;;;;;;22.24;64.47;101359.63;5072440;28;20024;-64
2023/08/24 07:37:28;;;;;;;15.70;12.65;;;;;;;22.33;64.41;101350.38;5072016;28;20075;-64
2023/08/24 07:39:53;;;;;;;16.95;13.80;;;;;;;22.37;63.72;101351.41;5071544;28;20028;-64
2023/08/24 07:42:21;;;;;;;19.73;14.25;;;;;;;22.38;63.36;101351.06;5072380;28;20103;-64
2023/08/24 07:44:47;;;;;;;16.92;12.40;;;;;;;22.48;64.55;101348.00;5072162;28;20488;-65
2023/08/24 07:47:14;;;;;;;18.63;13.98;;;;;;;22.54;63.57;101343.03;5067007;28;20064;-65
2023/08/24 07:49:44;;;;;;;14.73;12.02;;;;;;;22.58;63.68;101348.88;5072326;28;20082;-65
2023/08/24 07:52:09;;;;;;;16.67;13.50;;;;;;;22.60;62.97;101350.25;5072314;28;20107;-65
2023/08/24 07:54:35;;;;;;;17.67;13.20;;;;;;;22.63;63.44;101351.56;5071621;28;20527;-65
2023/08/24 07:57:01;;;;;;;17.85;11.82;;;;;;;22.68;64.27;101351.47;5072072;28;20028;-65
2023/08/24 07:59:26;;;;;;;16.30;13.00;;;;;;;22.72;64.15;101353.31;5072367;28;20482;-65
2023/08/24 08:01:51;;;;;;;14.80;11.23;;;;;;;22.77;62.84;101358.81;5067580;28;20029;-65
2023/08/24 08:04:16;;;;;;;17.70;11.32;;;;;;;22.79;63.84;101359.34;5072261;28;20125;-65
2023/08/24 08:06:42;;;;;;;17.35;11.38;;;;;;;22.79;63.44;101365.00;5072106;28;20264;-65
2023/08/24 08:09:07;;;;;;;15.10;10.77;;;;;;;22.84;63.19;101354.72;5071290;28;20035;-65
2023/08/24 08:11:33;;;;;;;14.73;10.75;;;;;;;22.82;62.32;101352.19;5067491;28;20082;-66
2023/08/24 08:13:58;;;;;;;15.88;11.30;;;;;;;22.84;62.71;101355.56;5072153;28;20536;-65
2023/08/24 08:16:24;;;;;;;13.48;9.80;;;;;;;22.89;63.23;101355.41;5070999;28;20052;-65
2023/08/24 08:18:49;;;;;;;13.85;10.50;;;;;;;22.92;62.43;101348.31;5071904;28;20032;-66
2023/08/24 08:21:17;;;;;;;14.15;10.80;;;;;;;22.96;62.63;101338.81;5072014;28;20036;-65
2023/08/24 08:23:45;;;;;;;17.83;12.57;;;;;;;22.98;62.19;101333.66;5071814;28;20036;-65
2023/08/24 08:26:10;;;;;;;21.63;11.43;;;;;;;23.06;61.82;101326.38;5071659;28;20040;-66
2023/08/24 08:28:36;;;;;;;13.43;10.93;;;;;;;23.13;62.14;101329.56;5058570;28;20082;-65
2023/08/24 08:31:02;;;;;;;16.80;11.52;;;;;;;23.14;62.16;101319.91;5051679;28;20060;-65
2023/08/24 08:33:28;;;;;;;14.10;11.30;;;;;;;23.16;62.29;101333.75;5051908;28;20032;-66
2023/08/24 08:35:53;;;;;;;16.63;11.35;;;;;;;23.18;62.21;101325.75;5051029;28;20033;-65
2023/08/24 08:38:21;;;;;;;18.10;12.27;;;;;;;23.22;61.61;101324.75;5051756;28;20025;-65
2023/08/24 08:40:49;;;;;;;22.10;11.50;;;;;;;23.26;61.81;101311.66;5051667;28;20025;-65
2023/08/24 08:43:14;;;;;;;14.65;12.00;;;;;;;23.29;62.70;101307.31;5051080;28;20067;-66
2023/08/24 08:45:40;;;;;;;18.80;12.15;;;;;;;23.32;61.93;101300.16;5053798;28;20033;-66
2023/08/24 08:48:07;;;;;;;15.30;12.98;;;;;;;23.32;61.38;101295.31;5058711;28;20091;-66
2023/08/24 08:50:35;;;;;;;16.65;11.93;;;;;;;23.32;61.37;101286.81;5050850;28;20037;-65
2023/08/24 08:53:00;;;;;;;16.65;12.25;;;;;;;23.35;61.99;101283.34;5051682;28;20099;-65
2023/08/24 08:55:26;;;;;;;15.48;12.05;;;;;;;23.35;62.76;101274.00;5051356;28;20031;-66
2023/08/24 08:57:57;;;;;;;17.30;11.65;;;;;;;23.39;62.89;101258.84;5050947;28;20108;-65
2023/08/24 09:00:23;;;;;;;12.75;10.00;;;;;;;23.41;62.98;101256.50;5055139;28;20401;-65
2023/08/24 09:02:52;;;;;;;14.98;10.10;;;;;;;23.48;62.80;101251.19;5055366;28;20021;-66
2023/08/24 09:05:17;;;;;;;13.90;11.85;;;;;;;23.51;62.98;101244.88;5056740;28;20032;-65
2023/08/24 09:07:43;;;;;;;15.48;10.95;;;;;;;23.54;62.41;101229.22;5075212;28;20024;-66
2023/08/24 09:10:09;;;;;;;19.80;11.60;;;;;;;23.56;62.01;101212.72;5075099;28;20154;-66
2023/08/24 09:12:35;;;;;;;17.33;13.07;;;;;;;23.57;62.80;101220.03;5074254;28;20025;-65
2023/08/24 09:15:04;;;;;;;15.80;10.98;;;;;;;23.63;63.12;101215.06;5075220;28;20055;-65
2023/08/24 09:17:29;;;;;;;17.73;12.77;;;;;;;23.64;63.21;101208.22;5074873;28;20093;-65
2023/08/24 09:19:58;;;;;;;18.73;12.45;;;;;;;23.63;63.05;101198.06;5074203;28;20024;-65
2023/08/24 09:22:24;;;;;;;18.33;12.70;;;;;;;23.66;62.84;101189.75;5073709;28;20123;-66
2023/08/24 09:24:54;;;;;;;15.52;13.57;;;;;;;23.64;63.03;101192.03;5071471;28;20107;-65
2023/08/24 09:27:21;;;;;;;16.85;14.45;;;;;;;23.64;63.18;101186.38;5074861;28;20032;-66
2023/08/24 09:29:48;;;;;;;19.95;14.40;;;;;;;23.65;63.40;101188.03;5074998;28;20056;-65
2023/08/24 09:32:13;;;;;;;20.15;14.90;;;;;;;23.66;62.54;101194.59;5074163;28;20358;-65
2023/08/24 09:34:39;;;;;;;18.80;13.70;;;;;;;23.66;62.75;101203.09;5074572;28;20036;-65
2023/08/24 09:37:11;;;;;;;18.25;13.85;;;;;;;23.66;63.48;101209.59;5074695;28;20033;-65
2023/08/24 09:39:37;;;;;;;21.85;13.80;;;;;;;23.72;63.15;101222.41;5073208;28;20029;-65
2023/08/24 09:42:03;;;;;;;18.42;13.63;;;;;;;23.72;62.68;101233.75;5070867;28;20093;-65
2023/08/24 09:44:28;;;;;;;15.32;13.77;;;;;;;23.76;63.16;101253.75;5074674;28;20086;-65
2023/08/24 09:46:53;;;;;;;18.00;13.90;;;;;;;23.79;62.63;101255.09;5073803;28;20032;-66
2023/08/24 09:49:19;;;;;;;18.67;13.43;;;;;;;23.82;62.32;101245.94;5074567;28;20047;-66
2023/08/24 09:51:45;;;;;;;14.77;11.75;;;;;;;23.83;62.94;101258.94;5074426;28;20024;-66
2023/08/24 09:54:12;;;;;;;22.35;13.68;;;;;;;23.82;63.35;101238.28;5073927;28;20464;-65
2023/08/24 09:56:39;;;;;;;17.02;13.15;;;;;;;23.84;63.17;101249.25;5071725;28;20024;-65
2023/08/24 09:59:21;;;;;;;18.75;12.52;;;;;;;23.85;63.19;101253.75;5071700;28;20037;-66
2023/08/24 10:01:49;;;;;;;17.90;12.80;;;;;;;23.84;63.81;101257.75;5061097;28;20495;-66
2023/08/24 10:04:23;;;;;;;13.52;11.35;;;;;;;23.82;63.11;101265.78;5053975;28;20040;-65
2023/08/24 10:06:54;;;;;;;17.10;13.07;;;;;;;23.84;63.90;101274.78;5053737;28;20063;-65
2023/08/24 10:09:31;;;;;;;16.52;12.50;;;;;;;23.83;63.58;101284.44;5053941;28;20059;-66
2023/08/24 10:12:00;;;;;;;15.80;12.05;;;;;;;23.81;64.81;101281.09;5056190;28;20025;-65
2023/08/24 10:14:38;;;;;;;14.02;9.77;;;;;;;23.83;63.77;101284.44;5053945;28;20028;-65
2023/08/24 10:17:04;;;;;;;13.20;10.40;;;;;;;23.81;64.93;101289.59;5053859;28;20111;-66
2023/08/24 10:19:30;;;;;;;15.80;10.75;;;;;;;23.78;65.23;101279.78;5054134;28;20033;-65
2023/08/24 10:21:57;;;;;;;14.13;9.50;;;;;;;23.80;64.61;101276.59;5053235;28;20036;-65
2023/08/24 10:24:23;;;;;;;12.45;9.57;;;;;;;23.77;65.68;101258.25;5053760;28;20021;-65
2023/08/24 10:26:50;;;;;;;12.38;9.07;;;;;;;23.77;64.67;101263.91;5053825;28;20392;-65
2023/08/24 10:29:16;;;;;;;11.55;9.30;;;;;;;23.75;65.76;101269.09;5052379;28;20025;-65
2023/08/24 10:31:43;;;;;;;9.38;8.38;;;;;;;23.74;65.30;101275.94;5060196;28;20116;-65
2023/08/24 10:34:09;;;;;;;12.32;7.43;;;;;;;23.73;64.33;101285.59;5053830;28;20052;-65
2023/08/24 10:36:35;;;;;;;12.85;7.18;;;;;;;23.70;64.14;101289.13;5053006;28;20017;-65
2023/08/24 10:39:06;;;;;;;10.25;6.90;;;;;;;23.69;63.88;101284.59;5053615;28;20025;-65
2023/08/24 10:41:51;;;;;;;10.32;6.13;;;;;;;23.68;64.34;101291.44;5053543;28;20036;-65
2023/08/24 10:44:33;;;;;;;13.32;5.82;;;;;;;23.65;63.59;101301.38;5052998;28;20392;-65
2023/08/24 10:47:18;;;;;;;10.98;5.40;;;;;;;23.65;63.39;101306.22;5053654;28;20040;-64
2023/08/24 10:49:57;;;;;;;9.63;5.30;;;;;;;23.62;63.13;101299.25;5059533;28;20040;-65
2023/08/24 10:52:36;;;;;;;10.98;5.60;;;;;;;23.65;63.50;101289.22;5073364;28;20115;-65
2023/08/24 10:55:04;;;;;;;12.55;5.72;;;;;;;23.61;63.45;101294.72;5073556;28;20025;-65
2023/08/24 10:57:38;;;;;;;10.73;6.75;;;;;;;23.61;63.14;101291.88;5072503;28;20042;-65
2023/08/24 11:00:11;;;;;;;11.90;7.60;;;;;;;23.60;63.25;101287.38;5073186;28;20112;-65
2023/08/24 11:02:49;;;;;;;10.68;6.28;;;;;;;23.59;63.37;101268.72;5073040;28;20021;-64
2023/08/24 11:05:17;;;;;;;9.88;7.18;;;;;;;23.60;63.82;101281.72;5068977;28;20021;-65
2023/08/24 11:07:53;;;;;;;12.15;7.45;;;;;;;23.63;64.13;101283.91;5071981;28;20503;-65
2023/08/24 11:10:20;;;;;;;14.38;8.55;;;;;;;23.63;64.48;101269.72;5072325;28;20143;-65
2023/08/24 11:13:04;;;;;;;12.80;7.53;;;;;;;23.64;64.70;101265.72;5072800;28;20376;-65